sensor_id;sensor_type;location;lat;lon;timestamp;P1;durP1;ratioP1;P2;durP2;ratioP2
13708;SDS011;54933;51.908;7.730;2023-10-08T00:02:08;2.83;;;2.37;;
13708;SDS011;54933;51.908;7.730;2023-10-08T00:04:34;2.87;;;2.47;;
13708;SDS011;54933;51.908;7.730;2023-10-08T00:07:03;4.07;;;2.80;;
13708;SDS011;54933;51.908;7.730;2023-10-08T00:09:33;5.83;;;2.73;;
13708;SDS011;54933;51.908;7.730;2023-10-08T00:12:02;4.30;;;2.83;;
13708;SDS011;54933;51.908;7.730;2023-10-08T00:14:28;3.30;;;2.40;;
13708;SDS011;54933;51.908;7.730;2023-10-08T00:16:53;3.93;;;2.60;;
13708;SDS011;54933;51.908;7.730;2023-10-08T00:19:19;3.00;;;2.00;;
13708;SDS011;54933;51.908;7.730;2023-10-08T00:21:44;3.23;;;2.30;;
13708;SDS011;54933;51.908;7.730;2023-10-08T00:24:10;3.80;;;2.37;;
13708;SDS011;54933;51.908;7.730;2023-10-08T00:26:37;3.07;;;2.43;;
13708;SDS011;54933;51.908;7.730;2023-10-08T00:29:05;5.03;;;2.60;;
13708;SDS011;54933;51.908;7.730;2023-10-08T00:31:44;2.63;;;2.30;;
13708;SDS011;54933;51.908;7.730;2023-10-08T00:34:13;4.10;;;2.73;;
13708;SDS011;54933;51.908;7.730;2023-10-08T00:36:40;3.23;;;2.40;;
13708;SDS011;54933;51.908;7.730;2023-10-08T00:39:06;3.77;;;2.50;;
13708;SDS011;54933;51.908;7.730;2023-10-08T00:41:38;2.77;;;2.17;;
13708;SDS011;54933;51.908;7.730;2023-10-08T00:44:06;3.07;;;2.30;;
13708;SDS011;54933;51.908;7.730;2023-10-08T00:46:32;3.90;;;2.20;;
13708;SDS011;54933;51.908;7.730;2023-10-08T00:49:02;3.70;;;2.30;;
13708;SDS011;54933;51.908;7.730;2023-10-08T00:51:49;3.27;;;2.10;;
13708;SDS011;54933;51.908;7.730;2023-10-08T00:54:37;3.83;;;2.53;;
13708;SDS011;54933;51.908;7.730;2023-10-08T00:57:26;4.90;;;2.67;;
13708;SDS011;54933;51.908;7.730;2023-10-08T00:59:54;3.50;;;2.70;;
13708;SDS011;54933;51.908;7.730;2023-10-08T01:02:27;2.70;;;2.13;;
13708;SDS011;54933;51.908;7.730;2023-10-08T01:05:13;3.00;;;2.57;;
13708;SDS011;54933;51.908;7.730;2023-10-08T01:07:43;2.53;;;2.30;;
13708;SDS011;54933;51.908;7.730;2023-10-08T01:10:14;2.90;;;2.33;;
13708;SDS011;54933;51.908;7.730;2023-10-08T01:12:44;2.67;;;2.20;;
13708;SDS011;54933;51.908;7.730;2023-10-08T01:15:20;3.67;;;2.30;;
13708;SDS011;54933;51.908;7.730;2023-10-08T01:17:53;2.93;;;2.17;;
13708;SDS011;54933;51.908;7.730;2023-10-08T01:20:50;2.43;;;2.13;;
13708;SDS011;54933;51.908;7.730;2023-10-08T01:23:17;3.50;;;2.60;;
13708;SDS011;54933;51.908;7.730;2023-10-08T01:25:46;3.73;;;2.27;;
13708;SDS011;54933;51.908;7.730;2023-10-08T01:28:22;3.80;;;2.07;;
13708;SDS011;54933;51.908;7.730;2023-10-08T01:30:58;3.13;;;2.13;;
13708;SDS011;54933;51.908;7.730;2023-10-08T01:33:29;3.60;;;2.37;;
13708;SDS011;54933;51.908;7.730;2023-10-08T01:36:02;3.10;;;2.40;;
13708;SDS011;54933;51.908;7.730;2023-10-08T01:38:29;3.47;;;2.17;;
13708;SDS011;54933;51.908;7.730;2023-10-08T01:40:56;2.03;;;1.90;;
13708;SDS011;54933;51.908;7.730;2023-10-08T01:43:22;3.63;;;2.40;;
13708;SDS011;54933;51.908;7.730;2023-10-08T01:45:47;2.93;;;2.20;;
13708;SDS011;54933;51.908;7.730;2023-10-08T01:48:16;2.40;;;2.17;;
13708;SDS011;54933;51.908;7.730;2023-10-08T01:50:45;2.63;;;2.20;;
13708;SDS011;54933;51.908;7.730;2023-10-08T01:53:14;2.87;;;2.00;;
13708;SDS011;54933;51.908;7.730;2023-10-08T01:55:41;3.20;;;2.00;;
13708;SDS011;54933;51.908;7.730;2023-10-08T01:58:17;4.23;;;2.27;;
13708;SDS011;54933;51.908;7.730;2023-10-08T02:00:43;2.50;;;2.10;;
13708;SDS011;54933;51.908;7.730;2023-10-08T02:03:12;3.97;;;2.47;;
13708;SDS011;54933;51.908;7.730;2023-10-08T02:05:40;2.13;;;1.90;;
13708;SDS011;54933;51.908;7.730;2023-10-08T02:08:07;2.17;;;1.80;;
13708;SDS011;54933;51.908;7.730;2023-10-08T02:10:37;2.10;;;1.90;;
13708;SDS011;54933;51.908;7.730;2023-10-08T02:13:03;2.10;;;1.90;;
13708;SDS011;54933;51.908;7.730;2023-10-08T02:15:30;2.03;;;1.83;;
13708;SDS011;54933;51.908;7.730;2023-10-08T02:17:55;2.03;;;1.83;;
13708;SDS011;54933;51.908;7.730;2023-10-08T02:20:20;3.03;;;1.90;;
13708;SDS011;54933;51.908;7.730;2023-10-08T02:22:46;2.60;;;2.10;;
13708;SDS011;54933;51.908;7.730;2023-10-08T02:25:14;2.20;;;2.00;;
13708;SDS011;54933;51.908;7.730;2023-10-08T02:27:40;2.50;;;2.10;;
13708;SDS011;54933;51.908;7.730;2023-10-08T02:30:05;2.80;;;2.10;;
13708;SDS011;54933;51.908;7.730;2023-10-08T02:32:34;2.53;;;1.90;;
13708;SDS011;54933;51.908;7.730;2023-10-08T02:34:59;1.67;;;1.57;;
13708;SDS011;54933;51.908;7.730;2023-10-08T02:37:25;2.37;;;1.80;;
13708;SDS011;54933;51.908;7.730;2023-10-08T02:39:50;2.20;;;2.00;;
13708;SDS011;54933;51.908;7.730;2023-10-08T02:42:15;1.57;;;1.47;;
13708;SDS011;54933;51.908;7.730;2023-10-08T02:44:41;1.80;;;1.70;;
13708;SDS011;54933;51.908;7.730;2023-10-08T02:47:07;1.73;;;1.63;;
13708;SDS011;54933;51.908;7.730;2023-10-08T02:49:33;2.27;;;1.90;;
13708;SDS011;54933;51.908;7.730;2023-10-08T02:52:00;2.17;;;1.90;;
13708;SDS011;54933;51.908;7.730;2023-10-08T02:54:25;2.03;;;1.80;;
13708;SDS011;54933;51.908;7.730;2023-10-08T02:56:57;1.80;;;1.70;;
13708;SDS011;54933;51.908;7.730;2023-10-08T02:59:29;2.67;;;1.93;;
13708;SDS011;54933;51.908;7.730;2023-10-08T03:02:04;2.10;;;1.60;;
13708;SDS011;54933;51.908;7.730;2023-10-08T03:04:46;2.37;;;1.77;;
13708;SDS011;54933;51.908;7.730;2023-10-08T03:07:13;2.77;;;1.73;;
13708;SDS011;54933;51.908;7.730;2023-10-08T03:09:57;2.20;;;1.63;;
13708;SDS011;54933;51.908;7.730;2023-10-08T03:12:30;1.87;;;1.70;;
13708;SDS011;54933;51.908;7.730;2023-10-08T03:15:02;1.70;;;1.60;;
13708;SDS011;54933;51.908;7.730;2023-10-08T03:17:36;2.60;;;1.67;;
13708;SDS011;54933;51.908;7.730;2023-10-08T03:20:13;2.10;;;1.90;;
13708;SDS011;54933;51.908;7.730;2023-10-08T03:23:06;1.83;;;1.70;;
13708;SDS011;54933;51.908;7.730;2023-10-08T03:25:56;1.43;;;1.33;;
13708;SDS011;54933;51.908;7.730;2023-10-08T03:28:42;1.53;;;1.43;;
13708;SDS011;54933;51.908;7.730;2023-10-08T03:31:07;2.03;;;1.70;;
13708;SDS011;54933;51.908;7.730;2023-10-08T03:33:42;1.93;;;1.40;;
13708;SDS011;54933;51.908;7.730;2023-10-08T03:36:08;2.00;;;1.70;;
13708;SDS011;54933;51.908;7.730;2023-10-08T03:38:39;2.00;;;1.57;;
13708;SDS011;54933;51.908;7.730;2023-10-08T03:41:15;2.23;;;1.80;;
13708;SDS011;54933;51.908;7.730;2023-10-08T03:43:44;1.47;;;1.37;;
13708;SDS011;54933;51.908;7.730;2023-10-08T03:46:26;1.50;;;1.40;;
13708;SDS011;54933;51.908;7.730;2023-10-08T03:48:52;1.70;;;1.60;;
13708;SDS011;54933;51.908;7.730;2023-10-08T03:51:18;1.97;;;1.87;;
13708;SDS011;54933;51.908;7.730;2023-10-08T03:53:47;2.00;;;1.50;;
13708;SDS011;54933;51.908;7.730;2023-10-08T03:56:40;2.20;;;1.60;;
13708;SDS011;54933;51.908;7.730;2023-10-08T03:59:11;2.03;;;1.70;;
13708;SDS011;54933;51.908;7.730;2023-10-08T04:01:47;2.23;;;1.63;;
13708;SDS011;54933;51.908;7.730;2023-10-08T04:04:20;2.30;;;1.87;;
13708;SDS011;54933;51.908;7.730;2023-10-08T04:06:49;2.03;;;1.33;;
13708;SDS011;54933;51.908;7.730;2023-10-08T04:09:16;1.60;;;1.50;;
13708;SDS011;54933;51.908;7.730;2023-10-08T04:11:45;1.80;;;1.50;;
13708;SDS011;54933;51.908;7.730;2023-10-08T04:14:16;1.80;;;1.63;;
13708;SDS011;54933;51.908;7.730;2023-10-08T04:16:52;2.93;;;1.40;;
13708;SDS011;54933;51.908;7.730;2023-10-08T04:19:20;2.27;;;1.37;;
13708;SDS011;54933;51.908;7.730;2023-10-08T04:21:53;1.47;;;1.37;;
13708;SDS011;54933;51.908;7.730;2023-10-08T04:24:22;1.90;;;1.30;;
13708;SDS011;54933;51.908;7.730;2023-10-08T04:26:59;2.10;;;1.80;;
13708;SDS011;54933;51.908;7.730;2023-10-08T04:29:28;1.40;;;1.30;;
13708;SDS011;54933;51.908;7.730;2023-10-08T04:31:57;1.30;;;1.20;;
13708;SDS011;54933;51.908;7.730;2023-10-08T04:34:37;1.53;;;1.43;;
13708;SDS011;54933;51.908;7.730;2023-10-08T04:37:02;2.07;;;1.43;;
13708;SDS011;54933;51.908;7.730;2023-10-08T04:39:37;2.20;;;1.47;;
13708;SDS011;54933;51.908;7.730;2023-10-08T04:42:05;1.60;;;1.43;;
13708;SDS011;54933;51.908;7.730;2023-10-08T04:44:35;1.60;;;1.30;;
13708;SDS011;54933;51.908;7.730;2023-10-08T04:47:04;1.50;;;1.40;;
13708;SDS011;54933;51.908;7.730;2023-10-08T04:49:30;1.60;;;1.50;;
13708;SDS011;54933;51.908;7.730;2023-10-08T04:52:01;1.57;;;1.47;;
13708;SDS011;54933;51.908;7.730;2023-10-08T04:54:34;1.30;;;1.20;;
13708;SDS011;54933;51.908;7.730;2023-10-08T04:57:05;1.60;;;1.50;;
13708;SDS011;54933;51.908;7.730;2023-10-08T04:59:32;1.20;;;1.20;;
13708;SDS011;54933;51.908;7.730;2023-10-08T05:01:59;1.47;;;1.23;;
13708;SDS011;54933;51.908;7.730;2023-10-08T05:04:43;1.63;;;1.40;;
13708;SDS011;54933;51.908;7.730;2023-10-08T05:07:25;1.70;;;1.60;;
13708;SDS011;54933;51.908;7.730;2023-10-08T05:10:09;1.40;;;1.30;;
13708;SDS011;54933;51.908;7.730;2023-10-08T05:12:35;1.37;;;1.27;;
13708;SDS011;54933;51.908;7.730;2023-10-08T05:15:10;1.27;;;1.17;;
13708;SDS011;54933;51.908;7.730;2023-10-08T05:17:39;1.33;;;1.23;;
13708;SDS011;54933;51.908;7.730;2023-10-08T05:20:17;1.70;;;1.27;;
13708;SDS011;54933;51.908;7.730;2023-10-08T05:23:06;1.10;;;1.00;;
13708;SDS011;54933;51.908;7.730;2023-10-08T05:25:53;1.20;;;1.13;;
13708;SDS011;54933;51.908;7.730;2023-10-08T05:28:23;1.10;;;1.00;;
13708;SDS011;54933;51.908;7.730;2023-10-08T05:30:50;1.70;;;1.30;;
13708;SDS011;54933;51.908;7.730;2023-10-08T05:33:30;1.07;;;1.03;;
13708;SDS011;54933;51.908;7.730;2023-10-08T05:36:15;1.50;;;1.20;;
13708;SDS011;54933;51.908;7.730;2023-10-08T05:38:52;1.03;;;1.03;;
13708;SDS011;54933;51.908;7.730;2023-10-08T05:41:44;1.10;;;1.10;;
13708;SDS011;54933;51.908;7.730;2023-10-08T05:44:38;1.37;;;1.27;;
13708;SDS011;54933;51.908;7.730;2023-10-08T05:47:05;1.10;;;1.10;;
13708;SDS011;54933;51.908;7.730;2023-10-08T05:49:37;1.20;;;1.10;;
13708;SDS011;54933;51.908;7.730;2023-10-08T05:52:19;0.90;;;0.90;;
13708;SDS011;54933;51.908;7.730;2023-10-08T05:54:52;1.73;;;1.20;;
13708;SDS011;54933;51.908;7.730;2023-10-08T05:57:40;1.10;;;0.97;;
13708;SDS011;54933;51.908;7.730;2023-10-08T06:00:11;1.33;;;1.00;;
13708;SDS011;54933;51.908;7.730;2023-10-08T06:02:40;1.10;;;1.00;;
13708;SDS011;54933;51.908;7.730;2023-10-08T06:05:10;1.17;;;1.07;;
13708;SDS011;54933;51.908;7.730;2023-10-08T06:07:39;1.00;;;1.00;;
13708;SDS011;54933;51.908;7.730;2023-10-08T06:10:18;1.47;;;1.07;;
13708;SDS011;54933;51.908;7.730;2023-10-08T06:12:55;0.83;;;0.83;;
13708;SDS011;54933;51.908;7.730;2023-10-08T06:15:27;0.87;;;0.87;;
13708;SDS011;54933;51.908;7.730;2023-10-08T06:18:09;0.90;;;0.90;;
13708;SDS011;54933;51.908;7.730;2023-10-08T06:20:35;1.43;;;1.00;;
13708;SDS011;54933;51.908;7.730;2023-10-08T06:23:04;0.83;;;0.83;;
13708;SDS011;54933;51.908;7.730;2023-10-08T06:25:32;1.23;;;1.10;;
13708;SDS011;54933;51.908;7.730;2023-10-08T06:27:58;1.00;;;0.87;;
13708;SDS011;54933;51.908;7.730;2023-10-08T06:30:23;0.80;;;0.80;;
13708;SDS011;54933;51.908;7.730;2023-10-08T06:32:54;0.83;;;0.80;;
13708;SDS011;54933;51.908;7.730;2023-10-08T06:35:21;1.37;;;1.20;;
13708;SDS011;54933;51.908;7.730;2023-10-08T06:37:50;1.03;;;1.03;;
13708;SDS011;54933;51.908;7.730;2023-10-08T06:41:06;0.90;;;0.90;;
13708;SDS011;54933;51.908;7.730;2023-10-08T06:43:21;0.80;;;0.80;;
13708;SDS011;54933;51.908;7.730;2023-10-08T06:45:49;1.00;;;0.80;;
13708;SDS011;54933;51.908;7.730;2023-10-08T06:48:18;1.07;;;0.80;;
13708;SDS011;54933;51.908;7.730;2023-10-08T06:50:47;0.90;;;0.90;;
13708;SDS011;54933;51.908;7.730;2023-10-08T06:53:13;0.87;;;0.87;;
13708;SDS011;54933;51.908;7.730;2023-10-08T06:55:42;1.60;;;1.00;;
13708;SDS011;54933;51.908;7.730;2023-10-08T06:58:08;0.80;;;0.80;;
13708;SDS011;54933;51.908;7.730;2023-10-08T07:00:35;0.80;;;0.80;;
13708;SDS011;54933;51.908;7.730;2023-10-08T07:03:05;1.03;;;0.70;;
13708;SDS011;54933;51.908;7.730;2023-10-08T07:05:41;0.80;;;0.80;;
13708;SDS011;54933;51.908;7.730;2023-10-08T07:08:09;2.13;;;0.83;;
13708;SDS011;54933;51.908;7.730;2023-10-08T07:10:38;0.63;;;0.63;;
13708;SDS011;54933;51.908;7.730;2023-10-08T07:13:06;1.00;;;0.90;;
13708;SDS011;54933;51.908;7.730;2023-10-08T07:15:33;0.73;;;0.60;;
13708;SDS011;54933;51.908;7.730;2023-10-08T07:18:03;4.10;;;1.20;;
13708;SDS011;54933;51.908;7.730;2023-10-08T07:20:38;1.17;;;0.80;;
13708;SDS011;54933;51.908;7.730;2023-10-08T07:23:06;4.03;;;1.00;;
13708;SDS011;54933;51.908;7.730;2023-10-08T07:25:37;1.53;;;0.80;;
13708;SDS011;54933;51.908;7.730;2023-10-08T07:28:04;0.60;;;0.60;;
13708;SDS011;54933;51.908;7.730;2023-10-08T07:30:36;1.73;;;0.77;;
13708;SDS011;54933;51.908;7.730;2023-10-08T07:33:04;3.17;;;0.60;;
13708;SDS011;54933;51.908;7.730;2023-10-08T07:35:30;1.90;;;0.80;;
13708;SDS011;54933;51.908;7.730;2023-10-08T07:37:55;4.40;;;0.67;;
13708;SDS011;54933;51.908;7.730;2023-10-08T07:40:21;0.90;;;0.90;;
13708;SDS011;54933;51.908;7.730;2023-10-08T07:42:46;0.73;;;0.73;;
13708;SDS011;54933;51.908;7.730;2023-10-08T07:45:16;2.93;;;0.80;;
13708;SDS011;54933;51.908;7.730;2023-10-08T07:47:46;0.50;;;0.50;;
13708;SDS011;54933;51.908;7.730;2023-10-08T07:50:13;0.67;;;0.67;;
13708;SDS011;54933;51.908;7.730;2023-10-08T07:52:38;0.63;;;0.63;;
13708;SDS011;54933;51.908;7.730;2023-10-08T07:55:07;1.10;;;0.70;;
13708;SDS011;54933;51.908;7.730;2023-10-08T07:57:33;0.60;;;0.60;;
13708;SDS011;54933;51.908;7.730;2023-10-08T07:59:58;0.93;;;0.70;;
13708;SDS011;54933;51.908;7.730;2023-10-08T08:02:43;0.60;;;0.60;;
13708;SDS011;54933;51.908;7.730;2023-10-08T08:05:08;3.80;;;0.70;;
13708;SDS011;54933;51.908;7.730;2023-10-08T08:07:33;2.87;;;0.80;;
13708;SDS011;54933;51.908;7.730;2023-10-08T08:09:59;0.80;;;0.80;;
13708;SDS011;54933;51.908;7.730;2023-10-08T08:12:24;1.03;;;0.90;;
13708;SDS011;54933;51.908;7.730;2023-10-08T08:14:51;0.70;;;0.60;;
13708;SDS011;54933;51.908;7.730;2023-10-08T08:17:20;1.27;;;0.70;;
13708;SDS011;54933;51.908;7.730;2023-10-08T08:19:47;1.83;;;0.67;;
13708;SDS011;54933;51.908;7.730;2023-10-08T08:22:14;2.93;;;0.70;;
13708;SDS011;54933;51.908;7.730;2023-10-08T08:24:46;2.87;;;0.60;;
13708;SDS011;54933;51.908;7.730;2023-10-08T08:27:13;0.80;;;0.73;;
13708;SDS011;54933;51.908;7.730;2023-10-08T08:29:57;1.90;;;0.67;;
13708;SDS011;54933;51.908;7.730;2023-10-08T08:32:35;1.60;;;0.80;;
13708;SDS011;54933;51.908;7.730;2023-10-08T08:35:08;1.03;;;0.60;;
13708;SDS011;54933;51.908;7.730;2023-10-08T08:37:34;33.50;;;3.63;;
13708;SDS011;54933;51.908;7.730;2023-10-08T08:40:01;17.23;;;2.80;;
13708;SDS011;54933;51.908;7.730;2023-10-08T08:42:33;14.83;;;2.37;;
13708;SDS011;54933;51.908;7.730;2023-10-08T08:45:00;19.07;;;2.07;;
13708;SDS011;54933;51.908;7.730;2023-10-08T08:47:33;14.40;;;2.03;;
13708;SDS011;54933;51.908;7.730;2023-10-08T08:50:00;17.83;;;2.93;;
13708;SDS011;54933;51.908;7.730;2023-10-08T08:52:33;18.23;;;1.80;;
13708;SDS011;54933;51.908;7.730;2023-10-08T08:54:59;7.43;;;1.33;;
13708;SDS011;54933;51.908;7.730;2023-10-08T08:57:28;5.07;;;1.40;;
13708;SDS011;54933;51.908;7.730;2023-10-08T08:59:53;10.43;;;1.70;;
13708;SDS011;54933;51.908;7.730;2023-10-08T09:02:22;15.83;;;2.13;;
13708;SDS011;54933;51.908;7.730;2023-10-08T09:04:48;8.87;;;1.37;;
13708;SDS011;54933;51.908;7.730;2023-10-08T09:07:14;6.77;;;1.30;;
13708;SDS011;54933;51.908;7.730;2023-10-08T09:09:39;4.10;;;1.20;;
13708;SDS011;54933;51.908;7.730;2023-10-08T09:12:05;6.57;;;1.97;;
13708;SDS011;54933;51.908;7.730;2023-10-08T09:14:32;7.90;;;1.20;;
13708;SDS011;54933;51.908;7.730;2023-10-08T09:16:59;7.70;;;1.50;;
13708;SDS011;54933;51.908;7.730;2023-10-08T09:19:25;40.00;;;3.03;;
13708;SDS011;54933;51.908;7.730;2023-10-08T09:22:01;21.47;;;2.50;;
13708;SDS011;54933;51.908;7.730;2023-10-08T09:24:29;15.60;;;1.33;;
13708;SDS011;54933;51.908;7.730;2023-10-08T09:26:55;7.73;;;1.03;;
13708;SDS011;54933;51.908;7.730;2023-10-08T09:29:24;7.10;;;1.03;;
13708;SDS011;54933;51.908;7.730;2023-10-08T09:31:53;4.77;;;0.97;;
13708;SDS011;54933;51.908;7.730;2023-10-08T09:34:20;5.03;;;0.90;;
13708;SDS011;54933;51.908;7.730;2023-10-08T09:36:47;1.67;;;0.80;;
13708;SDS011;54933;51.908;7.730;2023-10-08T09:39:13;3.70;;;0.77;;
13708;SDS011;54933;51.908;7.730;2023-10-08T09:41:48;5.33;;;0.93;;
13708;SDS011;54933;51.908;7.730;2023-10-08T09:44:15;1.20;;;0.63;;
13708;SDS011;54933;51.908;7.730;2023-10-08T09:46:43;57.63;;;4.20;;
13708;SDS011;54933;51.908;7.730;2023-10-08T09:49:13;32.33;;;3.90;;
13708;SDS011;54933;51.908;7.730;2023-10-08T09:51:41;10.67;;;1.97;;
13708;SDS011;54933;51.908;7.730;2023-10-08T09:54:15;12.80;;;1.93;;
13708;SDS011;54933;51.908;7.730;2023-10-08T09:56:45;11.80;;;1.83;;
13708;SDS011;54933;51.908;7.730;2023-10-08T09:59:11;16.67;;;3.63;;
13708;SDS011;54933;51.908;7.730;2023-10-08T10:01:39;15.43;;;2.23;;
13708;SDS011;54933;51.908;7.730;2023-10-08T10:04:10;13.60;;;2.03;;
13708;SDS011;54933;51.908;7.730;2023-10-08T10:06:36;12.20;;;1.93;;
13708;SDS011;54933;51.908;7.730;2023-10-08T10:09:02;8.97;;;2.23;;
13708;SDS011;54933;51.908;7.730;2023-10-08T10:11:31;6.80;;;1.50;;
13708;SDS011;54933;51.908;7.730;2023-10-08T10:14:00;7.87;;;1.57;;
13708;SDS011;54933;51.908;7.730;2023-10-08T10:16:28;4.30;;;2.00;;
13708;SDS011;54933;51.908;7.730;2023-10-08T10:18:56;4.47;;;1.50;;
13708;SDS011;54933;51.908;7.730;2023-10-08T10:21:32;4.90;;;1.10;;
13708;SDS011;54933;51.908;7.730;2023-10-08T10:23:58;7.63;;;1.60;;
13708;SDS011;54933;51.908;7.730;2023-10-08T10:26:31;8.27;;;1.30;;
13708;SDS011;54933;51.908;7.730;2023-10-08T10:31:37;4.37;;;1.60;;
13708;SDS011;54933;51.908;7.730;2023-10-08T10:34:06;9.53;;;1.50;;
13708;SDS011;54933;51.908;7.730;2023-10-08T10:36:37;6.43;;;1.73;;
13708;SDS011;54933;51.908;7.730;2023-10-08T10:39:04;5.23;;;1.60;;
13708;SDS011;54933;51.908;7.730;2023-10-08T10:41:51;2.73;;;1.70;;
13708;SDS011;54933;51.908;7.730;2023-10-08T10:44:22;4.83;;;1.47;;
13708;SDS011;54933;51.908;7.730;2023-10-08T10:46:50;5.20;;;1.70;;
13708;SDS011;54933;51.908;7.730;2023-10-08T10:49:18;2.67;;;1.43;;
13708;SDS011;54933;51.908;7.730;2023-10-08T10:51:49;2.33;;;1.37;;
13708;SDS011;54933;51.908;7.730;2023-10-08T10:54:22;6.27;;;1.57;;
13708;SDS011;54933;51.908;7.730;2023-10-08T10:56:49;3.53;;;1.63;;
13708;SDS011;54933;51.908;7.730;2023-10-08T10:59:34;4.10;;;1.40;;
13708;SDS011;54933;51.908;7.730;2023-10-08T11:02:03;4.57;;;1.20;;
13708;SDS011;54933;51.908;7.730;2023-10-08T11:04:55;5.50;;;1.40;;
13708;SDS011;54933;51.908;7.730;2023-10-08T11:07:32;4.77;;;1.40;;
13708;SDS011;54933;51.908;7.730;2023-10-08T11:09:59;4.47;;;1.47;;
13708;SDS011;54933;51.908;7.730;2023-10-08T11:12:24;3.80;;;1.33;;
13708;SDS011;54933;51.908;7.730;2023-10-08T11:15:00;3.77;;;1.53;;
13708;SDS011;54933;51.908;7.730;2023-10-08T11:17:30;2.83;;;1.17;;
13708;SDS011;54933;51.908;7.730;2023-10-08T11:19:57;2.23;;;1.50;;
13708;SDS011;54933;51.908;7.730;2023-10-08T11:22:22;8.67;;;1.63;;
13708;SDS011;54933;51.908;7.730;2023-10-08T11:24:47;3.73;;;1.57;;
13708;SDS011;54933;51.908;7.730;2023-10-08T11:27:17;4.43;;;1.43;;
13708;SDS011;54933;51.908;7.730;2023-10-08T11:29:53;3.53;;;1.47;;
13708;SDS011;54933;51.908;7.730;2023-10-08T11:32:23;3.00;;;1.10;;
13708;SDS011;54933;51.908;7.730;2023-10-08T11:34:58;3.43;;;2.00;;
13708;SDS011;54933;51.908;7.730;2023-10-08T11:37:28;3.10;;;1.30;;
13708;SDS011;54933;51.908;7.730;2023-10-08T11:39:54;2.97;;;1.50;;
13708;SDS011;54933;51.908;7.730;2023-10-08T11:42:23;3.33;;;1.47;;
13708;SDS011;54933;51.908;7.730;2023-10-08T11:44:58;5.30;;;1.80;;
13708;SDS011;54933;51.908;7.730;2023-10-08T11:47:42;1.90;;;1.13;;
13708;SDS011;54933;51.908;7.730;2023-10-08T11:50:09;6.33;;;1.77;;
13708;SDS011;54933;51.908;7.730;2023-10-08T11:52:35;4.07;;;1.43;;
13708;SDS011;54933;51.908;7.730;2023-10-08T11:55:06;1.93;;;1.17;;
13708;SDS011;54933;51.908;7.730;2023-10-08T11:57:32;3.37;;;1.50;;
13708;SDS011;54933;51.908;7.730;2023-10-08T12:00:00;1.80;;;1.30;;
13708;SDS011;54933;51.908;7.730;2023-10-08T12:02:43;2.40;;;1.37;;
13708;SDS011;54933;51.908;7.730;2023-10-08T12:05:09;3.53;;;1.03;;
13708;SDS011;54933;51.908;7.730;2023-10-08T12:07:43;4.07;;;1.40;;
13708;SDS011;54933;51.908;7.730;2023-10-08T12:10:10;1.73;;;1.37;;
13708;SDS011;54933;51.908;7.730;2023-10-08T12:12:36;4.23;;;1.30;;
13708;SDS011;54933;51.908;7.730;2023-10-08T12:15:01;2.97;;;1.20;;
13708;SDS011;54933;51.908;7.730;2023-10-08T12:17:28;2.83;;;1.37;;
13708;SDS011;54933;51.908;7.730;2023-10-08T12:20:04;3.83;;;1.33;;
13708;SDS011;54933;51.908;7.730;2023-10-08T12:22:48;3.80;;;1.30;;
13708;SDS011;54933;51.908;7.730;2023-10-08T12:25:14;1.10;;;1.00;;
13708;SDS011;54933;51.908;7.730;2023-10-08T12:27:39;2.43;;;1.23;;
13708;SDS011;54933;51.908;7.730;2023-10-08T12:30:05;2.67;;;1.20;;
13708;SDS011;54933;51.908;7.730;2023-10-08T12:32:35;2.60;;;1.10;;
13708;SDS011;54933;51.908;7.730;2023-10-08T12:35:02;2.40;;;1.20;;
13708;SDS011;54933;51.908;7.730;2023-10-08T12:37:28;3.03;;;1.20;;
13708;SDS011;54933;51.908;7.730;2023-10-08T12:39:55;3.77;;;1.33;;
13708;SDS011;54933;51.908;7.730;2023-10-08T12:42:36;5.67;;;1.40;;
13708;SDS011;54933;51.908;7.730;2023-10-08T12:45:03;4.70;;;1.20;;
13708;SDS011;54933;51.908;7.730;2023-10-08T12:47:36;12.63;;;1.40;;
13708;SDS011;54933;51.908;7.730;2023-10-08T12:50:02;1.37;;;1.10;;
13708;SDS011;54933;51.908;7.730;2023-10-08T12:52:32;3.20;;;1.10;;
13708;SDS011;54933;51.908;7.730;2023-10-08T12:54:59;5.57;;;1.00;;
13708;SDS011;54933;51.908;7.730;2023-10-08T12:57:28;5.37;;;1.00;;
13708;SDS011;54933;51.908;7.730;2023-10-08T12:59:58;3.53;;;1.23;;
13708;SDS011;54933;51.908;7.730;2023-10-08T13:02:24;4.03;;;1.07;;
13708;SDS011;54933;51.908;7.730;2023-10-08T13:04:53;7.00;;;1.17;;
13708;SDS011;54933;51.908;7.730;2023-10-08T13:07:20;2.37;;;1.00;;
13708;SDS011;54933;51.908;7.730;2023-10-08T13:09:47;10.47;;;1.27;;
13708;SDS011;54933;51.908;7.730;2023-10-08T13:12:12;29.30;;;3.27;;
13708;SDS011;54933;51.908;7.730;2023-10-08T13:14:40;24.97;;;2.20;;
13708;SDS011;54933;51.908;7.730;2023-10-08T13:17:06;14.27;;;2.37;;
13708;SDS011;54933;51.908;7.730;2023-10-08T13:19:35;17.20;;;1.97;;
13708;SDS011;54933;51.908;7.730;2023-10-08T13:22:01;11.27;;;1.80;;
13708;SDS011;54933;51.908;7.730;2023-10-08T13:24:31;10.87;;;1.80;;
13708;SDS011;54933;51.908;7.730;2023-10-08T13:26:57;16.63;;;1.80;;
13708;SDS011;54933;51.908;7.730;2023-10-08T13:29:23;14.40;;;1.83;;
13708;SDS011;54933;51.908;7.730;2023-10-08T13:31:51;3.13;;;1.03;;
13708;SDS011;54933;51.908;7.730;2023-10-08T13:34:19;9.43;;;1.57;;
13708;SDS011;54933;51.908;7.730;2023-10-08T13:36:44;5.80;;;1.70;;
13708;SDS011;54933;51.908;7.730;2023-10-08T13:39:12;8.17;;;1.57;;
13708;SDS011;54933;51.908;7.730;2023-10-08T13:41:43;7.07;;;1.40;;
13708;SDS011;54933;51.908;7.730;2023-10-08T13:44:12;12.37;;;1.50;;
13708;SDS011;54933;51.908;7.730;2023-10-08T13:46:38;10.00;;;1.50;;
13708;SDS011;54933;51.908;7.730;2023-10-08T13:49:08;7.77;;;1.07;;
13708;SDS011;54933;51.908;7.730;2023-10-08T13:51:35;4.53;;;1.60;;
13708;SDS011;54933;51.908;7.730;2023-10-08T13:54:03;6.17;;;1.07;;
13708;SDS011;54933;51.908;7.730;2023-10-08T13:56:31;3.23;;;1.10;;
13708;SDS011;54933;51.908;7.730;2023-10-08T13:58:57;5.50;;;1.50;;
13708;SDS011;54933;51.908;7.730;2023-10-08T14:01:36;21.53;;;2.17;;
13708;SDS011;54933;51.908;7.730;2023-10-08T14:04:03;7.43;;;1.60;;
13708;SDS011;54933;51.908;7.730;2023-10-08T14:06:32;4.33;;;1.40;;
13708;SDS011;54933;51.908;7.730;2023-10-08T14:08:59;9.73;;;1.37;;
13708;SDS011;54933;51.908;7.730;2023-10-08T14:11:25;8.63;;;1.50;;
13708;SDS011;54933;51.908;7.730;2023-10-08T14:13:55;25.73;;;2.60;;
13708;SDS011;54933;51.908;7.730;2023-10-08T14:16:21;25.27;;;3.27;;
13708;SDS011;54933;51.908;7.730;2023-10-08T14:18:53;28.03;;;3.40;;
13708;SDS011;54933;51.908;7.730;2023-10-08T14:21:19;33.00;;;3.20;;
13708;SDS011;54933;51.908;7.730;2023-10-08T14:23:55;28.43;;;3.47;;
13708;SDS011;54933;51.908;7.730;2023-10-08T14:26:28;27.23;;;2.80;;
13708;SDS011;54933;51.908;7.730;2023-10-08T14:28:59;12.17;;;2.30;;
13708;SDS011;54933;51.908;7.730;2023-10-08T14:31:32;19.67;;;2.90;;
13708;SDS011;54933;51.908;7.730;2023-10-08T14:33:58;15.90;;;2.10;;
13708;SDS011;54933;51.908;7.730;2023-10-08T14:36:30;15.93;;;2.47;;
13708;SDS011;54933;51.908;7.730;2023-10-08T14:39:16;13.47;;;2.13;;
13708;SDS011;54933;51.908;7.730;2023-10-08T14:42:00;12.07;;;2.10;;
13708;SDS011;54933;51.908;7.730;2023-10-08T14:44:44;17.77;;;2.13;;
13708;SDS011;54933;51.908;7.730;2023-10-08T14:47:11;12.20;;;2.20;;
13708;SDS011;54933;51.908;7.730;2023-10-08T14:49:37;10.77;;;1.60;;
13708;SDS011;54933;51.908;7.730;2023-10-08T14:52:03;15.20;;;2.20;;
13708;SDS011;54933;51.908;7.730;2023-10-08T14:54:30;11.03;;;1.83;;
13708;SDS011;54933;51.908;7.730;2023-10-08T14:56:56;8.33;;;1.70;;
13708;SDS011;54933;51.908;7.730;2023-10-08T14:59:22;9.90;;;1.70;;
13708;SDS011;54933;51.908;7.730;2023-10-08T15:01:48;8.07;;;1.30;;
13708;SDS011;54933;51.908;7.730;2023-10-08T15:04:15;9.50;;;1.50;;
13708;SDS011;54933;51.908;7.730;2023-10-08T15:06:41;11.13;;;1.63;;
13708;SDS011;54933;51.908;7.730;2023-10-08T15:09:06;7.27;;;1.20;;